Aviation Digital Data Service (ADDS)

Output produced by METARs form (0251 UTC 25 January 2020)
found at http://www.aviationweather.gov/metar/data/
 
Forecast for: RJOA (NEW HIROSHIMA , JP)
Text: TAF RJOA 242305Z 2500/2606 08009KT 9999 FEW025 SCT035
Forecast period: 0000 UTC 25 January 2020 to 0600 UTC 26 January 2020
Forecast type: FROM: standard forecast or significant change
Winds: from the E (80 degrees) at 10 MPH (9 knots; 4.6 m/s)
Visibility: 6 or more miles 10+ km)
Ceiling: at least 12,000 feet AGL
Clouds: few clouds at 2500 feet AGL
scattered clouds at 3500 feet AGL
Weather: no significant weather forecast for this period